Time;durP1;ratioP1;P1;durP2;ratioP2;P2;SDS_P1;SDS_P2;PMS_P1;PMS_P2;Temp;Humidity;BMP_temperature;BMP_pressure;BME280_temperature;BME280_humidity;BME280_pressure;Samples;Min_cycle;Max_cycle;Signal;HPM_P1;HPM_P2
2022/07/17 00:00:54;;;;;;;4.82;2.53;;;17.10;68.90;;;;;;4949882;28;20115;-68
2022/07/17 00:03:20;;;;;;;7.45;2.22;;;17.00;69.00;;;;;;4951249;29;20035;-68
2022/07/17 00:05:46;;;;;;;8.88;2.53;;;17.00;69.20;;;;;;4934405;29;20431;-68
2022/07/17 00:08:12;;;;;;;7.60;2.35;;;17.00;69.20;;;;;;4947205;29;20023;-69
2022/07/17 00:10:40;;;;;;;6.55;1.90;;;16.90;69.60;;;;;;4934192;29;20087;-69
2022/07/17 00:13:06;;;;;;;5.50;1.70;;;16.90;69.60;;;;;;4952730;29;20090;-68
2022/07/17 00:15:32;;;;;;;5.93;2.30;;;16.90;69.70;;;;;;4940927;29;20078;-68
2022/07/17 00:17:59;;;;;;;5.82;1.92;;;16.90;69.70;;;;;;4951779;29;20031;-68
2022/07/17 00:20:25;;;;;;;7.40;2.10;;;16.80;69.80;;;;;;4932616;29;20550;-69
2022/07/17 00:22:52;;;;;;;5.05;1.83;;;16.80;70.00;;;;;;4949850;29;20183;-68
2022/07/17 00:25:17;;;;;;;5.22;1.80;;;16.80;69.90;;;;;;4943148;29;20027;-68
2022/07/17 00:27:43;;;;;;;5.82;2.38;;;16.80;70.10;;;;;;4944830;29;20479;-68
2022/07/17 00:30:09;;;;;;;5.63;2.28;;;16.70;70.20;;;;;;4937071;29;20028;-68
2022/07/17 00:32:35;;;;;;;3.72;1.95;;;16.70;70.30;;;;;;4953436;29;20074;-69
2022/07/17 00:35:00;;;;;;;3.22;1.58;;;16.60;70.50;;;;;;4934567;29;20503;-67
2022/07/17 00:37:26;;;;;;;7.22;2.67;;;16.70;70.50;;;;;;4953293;29;20118;-68
2022/07/17 00:39:51;;;;;;;9.00;2.22;;;16.70;70.60;;;;;;4937699;29;20023;-68
2022/07/17 00:42:17;;;;;;;4.78;2.05;;;16.60;70.50;;;;;;4949397;28;20090;-69
2022/07/17 00:44:44;;;;;;;5.68;2.22;;;16.60;70.50;;;;;;4950598;29;20030;-69
2022/07/17 00:47:19;;;;;;;6.93;2.05;;;16.60;70.70;;;;;;4957130;29;20058;-68
2022/07/17 00:49:46;;;;;;;7.10;2.28;;;16.60;70.90;;;;;;4952183;28;20454;-68
2022/07/17 00:52:13;;;;;;;5.93;1.85;;;16.50;70.90;;;;;;4956566;29;20039;-68
2022/07/17 00:54:41;;;;;;;5.10;1.55;;;16.50;71.00;;;;;;4944543;29;20032;-68
2022/07/17 00:57:09;;;;;;;5.80;1.98;;;16.50;71.30;;;;;;4952865;29;20494;-69
2022/07/17 00:59:36;;;;;;;3.60;1.63;;;16.40;71.10;;;;;;4937165;29;20070;-68
2022/07/17 01:02:06;;;;;;;3.78;1.70;;;16.40;71.40;;;;;;4956690;29;20039;-68
2022/07/17 01:04:35;;;;;;;4.78;1.77;;;16.40;71.70;;;;;;4945145;29;20059;-68
2022/07/17 01:07:03;;;;;;;5.50;1.88;;;16.30;71.50;;;;;;4949185;29;20039;-67
2022/07/17 01:09:29;;;;;;;3.47;1.55;;;16.30;71.50;;;;;;4945298;29;20051;-68
2022/07/17 01:11:55;;;;;;;4.28;1.60;;;16.40;71.70;;;;;;4955173;29;20039;-67
2022/07/17 01:14:22;;;;;;;8.55;2.10;;;16.30;71.70;;;;;;4949682;29;20059;-69
2022/07/17 01:16:49;;;;;;;6.07;1.67;;;16.30;72.10;;;;;;4949452;29;20122;-69
2022/07/17 01:19:15;;;;;;;4.80;1.75;;;16.30;72.20;;;;;;4946924;29;20042;-69
2022/07/17 01:21:46;;;;;;;3.92;1.83;;;16.30;72.20;;;;;;4945761;29;20039;-69
2022/07/17 01:24:12;;;;;;;8.00;2.00;;;16.30;72.20;;;;;;4952178;29;20028;-69
2022/07/17 01:26:42;;;;;;;3.45;1.70;;;16.20;72.20;;;;;;4956083;29;20434;-69
2022/07/17 01:29:09;;;;;;;3.60;1.73;;;16.20;72.40;;;;;;4953806;29;20171;-69
2022/07/17 01:31:35;;;;;;;4.47;2.00;;;16.20;72.40;;;;;;4949956;29;20231;-68
2022/07/17 01:34:02;;;;;;;6.70;1.92;;;16.20;72.50;;;;;;4954986;29;20100;-69
2022/07/17 01:36:27;;;;;;;5.10;1.70;;;16.20;72.60;;;;;;4948798;29;20114;-68
2022/07/17 01:38:54;;;;;;;3.25;1.70;;;16.20;72.50;;;;;;4951992;29;20134;-69
2022/07/17 01:41:20;;;;;;;5.30;1.95;;;16.20;72.70;;;;;;4955465;29;20046;-69
2022/07/17 01:43:45;;;;;;;4.32;1.77;;;16.20;72.80;;;;;;4943543;29;20020;-69
2022/07/17 01:46:11;;;;;;;4.38;1.83;;;16.10;73.00;;;;;;4943864;29;20019;-68
2022/07/17 01:48:36;;;;;;;3.67;1.50;;;16.10;73.10;;;;;;4954831;29;20078;-69
2022/07/17 01:51:03;;;;;;;8.07;2.00;;;16.10;73.10;;;;;;4955400;28;20043;-69
2022/07/17 01:53:28;;;;;;;4.68;1.60;;;16.10;73.50;;;;;;4954274;28;20023;-69
2022/07/17 01:55:54;;;;;;;4.60;1.60;;;16.00;73.50;;;;;;4954796;29;20491;-69
2022/07/17 01:58:20;;;;;;;3.45;1.50;;;16.00;73.40;;;;;;4952171;29;20475;-70
2022/07/17 02:00:46;;;;;;;5.35;1.80;;;16.00;73.70;;;;;;4955147;29;20051;-68
2022/07/17 02:03:11;;;;;;;4.18;1.35;;;16.00;73.60;;;;;;4944213;29;20032;-69
2022/07/17 02:05:37;;;;;;;5.03;1.75;;;16.00;73.70;;;;;;4938730;29;20115;-68
2022/07/17 02:08:03;;;;;;;4.20;1.60;;;16.00;73.60;;;;;;4948908;29;20036;-69
2022/07/17 02:10:28;;;;;;;7.15;1.67;;;16.00;73.80;;;;;;4937081;29;20248;-69
2022/07/17 02:12:54;;;;;;;6.70;1.60;;;16.00;73.70;;;;;;4949690;29;20498;-69
2022/07/17 02:15:20;;;;;;;5.13;2.22;;;16.00;73.70;;;;;;4940308;29;20461;-68
2022/07/17 02:17:45;;;;;;;4.38;1.60;;;16.00;74.10;;;;;;4950034;29;20460;-68
2022/07/17 02:20:12;;;;;;;4.45;1.50;;;16.00;73.50;;;;;;4936672;29;20028;-68
2022/07/17 02:22:38;;;;;;;5.40;1.63;;;16.00;73.50;;;;;;4949267;29;20098;-68
2022/07/17 02:25:06;;;;;;;6.38;1.85;;;16.00;73.50;;;;;;4943822;29;20019;-68
2022/07/17 02:27:32;;;;;;;5.70;1.55;;;16.00;73.80;;;;;;4927252;29;20438;-68
2022/07/17 02:29:57;;;;;;;3.38;1.50;;;16.00;73.90;;;;;;4936251;29;20083;-68
2022/07/17 02:32:23;;;;;;;4.00;1.92;;;15.90;73.80;;;;;;4948324;29;20023;-69
2022/07/17 02:34:49;;;;;;;4.97;2.03;;;15.90;74.20;;;;;;4954469;29;20062;-69
2022/07/17 02:37:14;;;;;;;4.97;2.05;;;15.90;74.00;;;;;;4953471;29;20114;-69
2022/07/17 02:39:52;;;;;;;3.70;1.83;;;15.90;74.20;;;;;;4936262;29;20383;-68
2022/07/17 02:42:21;;;;;;;6.43;2.15;;;15.90;74.30;;;;;;4951179;29;20085;-68
2022/07/17 02:44:48;;;;;;;4.93;2.03;;;15.90;74.50;;;;;;4955068;29;20086;-68
2022/07/17 02:47:21;;;;;;;8.52;1.95;;;15.80;74.50;;;;;;4953575;29;20082;-68
2022/07/17 02:49:47;;;;;;;5.85;1.70;;;15.80;74.60;;;;;;4940548;28;20027;-67
2022/07/17 02:52:12;;;;;;;4.05;1.70;;;15.80;74.70;;;;;;4953729;29;20034;-69
2022/07/17 02:54:38;;;;;;;4.07;1.88;;;15.80;74.80;;;;;;4936758;29;20028;-68
2022/07/17 02:57:03;;;;;;;5.80;1.80;;;15.80;74.90;;;;;;4948655;29;20110;-68
2022/07/17 02:59:29;;;;;;;4.40;1.95;;;15.80;74.90;;;;;;4936115;29;20048;-68
2022/07/17 03:01:55;;;;;;;4.15;1.70;;;15.70;75.30;;;;;;4946781;29;20047;-68
2022/07/17 03:04:20;;;;;;;5.45;1.85;;;15.70;75.40;;;;;;4937498;29;20533;-68
2022/07/17 03:06:46;;;;;;;3.85;1.30;;;15.70;75.60;;;;;;4941262;29;20027;-68
2022/07/17 03:09:12;;;;;;;5.32;1.75;;;15.70;75.70;;;;;;4938676;29;20023;-68
2022/07/17 03:11:37;;;;;;;5.20;1.70;;;15.70;75.70;;;;;;4943188;29;20494;-68
2022/07/17 03:14:03;;;;;;;2.47;1.40;;;15.70;75.70;;;;;;4939396;29;20035;-68
2022/07/17 03:16:28;;;;;;;4.32;1.70;;;15.60;75.70;;;;;;4941654;29;20031;-68
2022/07/17 03:18:54;;;;;;;13.57;3.05;;;15.70;75.80;;;;;;4940642;29;20038;-68
2022/07/17 03:21:19;;;;;;;4.43;1.75;;;15.60;75.90;;;;;;4951849;29;20023;-68
2022/07/17 03:23:45;;;;;;;8.30;3.75;;;15.60;76.10;;;;;;4946410;29;20118;-68
2022/07/17 03:26:10;;;;;;;5.43;1.77;;;15.60;76.20;;;;;;4945950;29;20055;-68
2022/07/17 03:28:36;;;;;;;6.50;1.85;;;15.60;76.30;;;;;;4942786;29;20038;-68
2022/07/17 03:31:01;;;;;;;3.70;1.63;;;15.60;76.30;;;;;;4942509;29;20031;-69
2022/07/17 03:33:27;;;;;;;5.95;2.00;;;15.60;76.50;;;;;;4948888;29;20046;-69
2022/07/17 03:35:52;;;;;;;7.75;2.35;;;15.60;76.50;;;;;;4957990;29;20023;-68
2022/07/17 03:38:18;;;;;;;7.20;2.20;;;15.60;76.60;;;;;;4960678;29;20031;-67
2022/07/17 03:40:43;;;;;;;5.00;1.70;;;15.60;76.80;;;;;;4955014;29;20041;-68
2022/07/17 03:43:09;;;;;;;8.18;2.00;;;15.70;77.20;;;;;;4946865;29;20029;-68
2022/07/17 03:45:35;;;;;;;6.10;2.92;;;15.70;76.80;;;;;;4954505;29;20055;-69
2022/07/17 03:48:00;;;;;;;5.38;2.28;;;15.60;76.80;;;;;;4935794;29;20471;-68
2022/07/17 03:50:26;;;;;;;8.07;1.85;;;15.60;77.30;;;;;;4952966;29;20106;-69
2022/07/17 03:52:52;;;;;;;10.15;2.67;;;15.70;77.00;;;;;;4932623;29;20031;-68
2022/07/17 03:55:17;;;;;;;6.65;2.50;;;15.70;77.10;;;;;;4951888;29;20036;-68
2022/07/17 03:57:43;;;;;;;6.05;1.92;;;15.70;77.00;;;;;;4948947;29;20027;-69
2022/07/17 04:00:09;;;;;;;4.60;1.88;;;15.70;77.00;;;;;;4948417;29;20042;-68
2022/07/17 04:02:34;;;;;;;4.93;1.63;;;15.70;77.00;;;;;;4952910;29;20129;-69
2022/07/17 04:05:00;;;;;;;3.65;1.90;;;15.70;77.10;;;;;;4936374;29;20028;-69
2022/07/17 04:07:28;;;;;;;8.90;2.30;;;15.70;77.10;;;;;;4951661;29;20174;-69
2022/07/17 04:09:56;;;;;;;4.70;1.70;;;15.70;77.20;;;;;;4944916;29;20019;-69
2022/07/17 04:12:21;;;;;;;3.55;1.60;;;15.70;77.20;;;;;;4937512;29;20027;-71
2022/07/17 04:14:47;;;;;;;6.38;1.92;;;15.80;77.30;;;;;;4953189;29;20034;-73
2022/07/17 04:17:13;;;;;;;5.20;1.60;;;15.80;77.40;;;;;;4940565;28;20023;-71
2022/07/17 04:19:38;;;;;;;2.45;1.38;;;15.80;77.40;;;;;;4949522;29;20103;-71
2022/07/17 04:22:04;;;;;;;5.97;1.83;;;15.80;77.40;;;;;;4936445;29;20035;-70
2022/07/17 04:24:29;;;;;;;6.15;2.50;;;15.80;77.50;;;;;;4938819;29;20053;-70
2022/07/17 04:26:55;;;;;;;5.47;1.60;;;15.80;77.40;;;;;;4951117;29;20031;-70
2022/07/17 04:29:20;;;;;;;3.10;1.55;;;15.70;77.60;;;;;;4952534;29;20027;-70
2022/07/17 04:31:46;;;;;;;5.88;1.75;;;15.70;77.70;;;;;;4953311;29;20039;-70
2022/07/17 04:34:11;;;;;;;7.40;1.90;;;15.70;77.70;;;;;;4952396;29;20113;-70
2022/07/17 04:36:37;;;;;;;5.68;2.00;;;15.70;77.80;;;;;;4953028;29;20057;-70
2022/07/17 04:39:03;;;;;;;4.75;1.92;;;15.80;77.90;;;;;;4938175;29;20059;-70
2022/07/17 04:41:29;;;;;;;7.45;1.88;;;15.90;78.00;;;;;;4933768;29;20078;-70
2022/07/17 04:43:54;;;;;;;6.25;1.95;;;15.80;78.00;;;;;;4931726;29;20059;-70
2022/07/17 04:46:20;;;;;;;5.13;2.05;;;15.90;78.00;;;;;;4953399;29;20031;-70
2022/07/17 04:48:45;;;;;;;6.63;1.77;;;15.90;78.20;;;;;;4940478;29;20024;-70
2022/07/17 04:51:11;;;;;;;11.18;2.60;;;15.90;78.00;;;;;;4949217;29;20478;-70
2022/07/17 04:53:37;;;;;;;4.38;1.70;;;15.90;78.10;;;;;;4949558;29;20078;-70
2022/07/17 04:56:03;;;;;;;4.45;1.80;;;15.90;78.10;;;;;;4952897;29;20118;-69
2022/07/17 04:58:29;;;;;;;4.40;1.60;;;16.00;78.40;;;;;;4944285;29;20107;-69
2022/07/17 05:00:54;;;;;;;6.35;2.03;;;16.00;78.20;;;;;;4933616;29;20159;-69
2022/07/17 05:03:20;;;;;;;8.98;3.05;;;16.00;78.30;;;;;;4942827;29;20501;-70
2022/07/17 05:05:46;;;;;;;3.08;1.60;;;16.00;78.20;;;;;;4953112;29;20050;-69
2022/07/17 05:08:11;;;;;;;3.65;1.80;;;16.00;78.20;;;;;;4951617;29;20509;-68
2022/07/17 05:10:37;;;;;;;4.03;1.88;;;16.10;78.20;;;;;;4952418;29;20059;-68
2022/07/17 05:13:03;;;;;;;10.32;1.95;;;16.10;78.20;;;;;;4951521;29;20118;-68
2022/07/17 05:15:28;;;;;;;5.22;1.60;;;16.10;78.30;;;;;;4952393;29;20451;-67
2022/07/17 05:17:54;;;;;;;5.13;1.90;;;16.20;78.30;;;;;;4950626;29;20091;-68
2022/07/17 05:20:20;;;;;;;5.40;1.90;;;16.20;78.30;;;;;;4952704;29;20398;-68
2022/07/17 05:22:45;;;;;;;5.85;2.30;;;16.20;78.20;;;;;;4947971;29;20438;-69
2022/07/17 05:25:11;;;;;;;7.18;2.45;;;16.20;78.40;;;;;;4941615;29;20027;-69
2022/07/17 05:27:36;;;;;;;8.65;2.30;;;16.30;78.30;;;;;;4950413;28;20031;-69
2022/07/17 05:30:02;;;;;;;3.58;1.48;;;16.30;78.30;;;;;;4939469;29;20040;-68
2022/07/17 05:32:28;;;;;;;3.67;1.60;;;16.30;78.20;;;;;;4951110;29;20170;-67
2022/07/17 05:34:54;;;;;;;3.92;1.73;;;16.40;78.30;;;;;;4937255;29;20115;-68
2022/07/17 05:37:19;;;;;;;6.45;2.25;;;16.40;78.10;;;;;;4937857;29;20019;-69
2022/07/17 05:39:45;;;;;;;7.25;2.45;;;16.50;78.10;;;;;;4944913;29;20038;-68
2022/07/17 05:42:10;;;;;;;6.65;2.15;;;16.50;77.90;;;;;;4955315;29;20043;-68
2022/07/17 05:44:36;;;;;;;4.95;2.00;;;16.50;77.70;;;;;;4951593;29;20041;-68
2022/07/17 05:47:02;;;;;;;7.05;2.17;;;16.50;77.70;;;;;;4955207;29;20027;-68
2022/07/17 05:49:27;;;;;;;4.97;1.85;;;16.50;77.70;;;;;;4951537;28;20032;-68
2022/07/17 05:51:53;;;;;;;4.72;1.85;;;16.60;77.80;;;;;;4956110;29;20023;-68
2022/07/17 05:54:18;;;;;;;9.10;2.03;;;16.70;77.70;;;;;;4954433;29;20034;-69
2022/07/17 05:56:44;;;;;;;3.90;1.42;;;16.80;77.50;;;;;;4956196;29;20035;-68
2022/07/17 05:59:09;;;;;;;5.72;1.90;;;16.90;77.50;;;;;;4954147;29;20474;-68
2022/07/17 06:01:35;;;;;;;5.40;2.30;;;17.10;77.10;;;;;;4960399;29;20109;-69
2022/07/17 06:04:01;;;;;;;3.25;1.60;;;17.10;76.70;;;;;;4961703;29;20035;-68
2022/07/17 06:06:26;;;;;;;4.32;2.13;;;17.20;76.60;;;;;;4955820;29;20031;-68
2022/07/17 06:08:52;;;;;;;3.72;1.63;;;17.20;75.80;;;;;;4953493;29;20019;-68
2022/07/17 06:11:17;;;;;;;3.45;1.48;;;17.20;75.30;;;;;;4955683;29;20073;-68
2022/07/17 06:13:43;;;;;;;5.05;1.73;;;17.20;74.70;;;;;;4950755;29;20037;-68
2022/07/17 06:16:08;;;;;;;5.57;1.38;;;17.30;74.90;;;;;;4937916;29;20036;-68
2022/07/17 06:18:34;;;;;;;6.00;1.88;;;17.30;74.70;;;;;;4946421;29;20027;-68
2022/07/17 06:20:59;;;;;;;5.35;1.98;;;17.40;73.90;;;;;;4938334;29;20024;-68
2022/07/17 06:23:25;;;;;;;5.45;1.55;;;17.40;73.90;;;;;;4938804;28;20031;-67
2022/07/17 06:25:50;;;;;;;7.30;1.70;;;17.40;74.00;;;;;;4950570;29;20122;-68
2022/07/17 06:28:16;;;;;;;5.20;1.90;;;17.50;73.10;;;;;;4953350;28;20253;-69
2022/07/17 06:30:42;;;;;;;6.07;1.77;;;17.50;73.00;;;;;;4955368;29;20039;-67
2022/07/17 06:33:07;;;;;;;4.07;1.50;;;17.50;73.40;;;;;;4957251;28;20015;-67
2022/07/17 06:35:33;;;;;;;6.85;1.98;;;17.60;72.80;;;;;;4939759;29;20038;-66
2022/07/17 06:37:59;;;;;;;3.55;1.83;;;17.70;72.80;;;;;;4946449;28;20024;-68
2022/07/17 06:40:25;;;;;;;7.35;1.67;;;17.90;73.00;;;;;;4951737;28;20062;-68
2022/07/17 06:42:51;;;;;;;6.43;2.13;;;18.10;72.90;;;;;;4922668;29;20032;-68
2022/07/17 06:45:16;;;;;;;5.25;1.70;;;18.10;71.90;;;;;;4940813;29;20035;-67
2022/07/17 06:47:42;;;;;;;3.85;1.60;;;18.20;71.10;;;;;;4952035;28;20041;-68
2022/07/17 06:50:09;;;;;;;3.08;1.55;;;18.20;71.20;;;;;;4951168;28;20122;-67
2022/07/17 06:52:35;;;;;;;5.30;1.80;;;18.40;70.80;;;;;;4948044;28;20354;-68
2022/07/17 06:55:04;;;;;;;7.32;1.88;;;18.50;71.00;;;;;;4955444;29;20043;-69
2022/07/17 06:57:30;;;;;;;5.88;2.40;;;18.50;70.10;;;;;;4949087;29;20036;-69
2022/07/17 06:59:55;;;;;;;5.82;1.70;;;18.60;70.40;;;;;;4947164;29;20047;-69
2022/07/17 07:02:21;;;;;;;5.07;1.75;;;18.70;70.40;;;;;;4947588;28;20486;-68
2022/07/17 07:04:46;;;;;;;4.78;1.83;;;18.80;70.40;;;;;;4948812;29;20031;-68
2022/07/17 07:07:12;;;;;;;10.88;2.33;;;18.70;69.20;;;;;;4952293;28;20564;-69
2022/07/17 07:09:38;;;;;;;6.65;2.40;;;18.60;69.20;;;;;;4939669;28;20454;-68
2022/07/17 07:12:04;;;;;;;6.28;1.63;;;18.60;69.60;;;;;;4949533;29;20038;-68
2022/07/17 07:14:29;;;;;;;4.55;1.60;;;18.50;70.10;;;;;;4949617;29;20043;-68
2022/07/17 07:16:55;;;;;;;5.85;1.70;;;18.60;70.10;;;;;;4951688;29;20043;-69
2022/07/17 07:19:20;;;;;;;4.70;1.80;;;18.70;70.40;;;;;;4952187;29;20027;-68
2022/07/17 07:21:46;;;;;;;4.88;1.70;;;18.80;69.90;;;;;;4929764;29;20039;-69
2022/07/17 07:24:11;;;;;;;7.40;2.40;;;19.00;69.80;;;;;;4939690;29;20044;-69
2022/07/17 07:26:37;;;;;;;4.18;1.80;;;18.90;69.10;;;;;;4952875;28;20474;-68
2022/07/17 07:29:03;;;;;;;2.67;1.70;;;19.00;69.10;;;;;;4941948;29;20034;-68
2022/07/17 07:31:28;;;;;;;4.82;1.92;;;19.10;69.20;;;;;;4953708;28;20111;-68
2022/07/17 07:33:54;;;;;;;4.80;2.05;;;19.20;68.80;;;;;;4950395;28;20028;-68
2022/07/17 07:36:20;;;;;;;6.95;2.47;;;19.30;68.70;;;;;;4935504;29;20043;-66
2022/07/17 07:38:45;;;;;;;5.28;1.88;;;19.30;68.20;;;;;;4949976;29;20122;-67
2022/07/17 07:41:11;;;;;;;3.72;1.90;;;19.40;68.40;;;;;;4952816;29;20126;-67
2022/07/17 07:43:36;;;;;;;6.65;1.83;;;19.30;67.80;;;;;;4945379;28;20016;-67
2022/07/17 07:46:03;;;;;;;3.75;1.38;;;19.20;67.80;;;;;;4941487;29;20028;-67
2022/07/17 07:48:29;;;;;;;4.80;1.50;;;19.30;68.10;;;;;;4947746;29;20031;-67
2022/07/17 07:50:54;;;;;;;5.18;1.88;;;19.40;68.30;;;;;;4948903;28;20082;-67
2022/07/17 07:53:20;;;;;;;6.80;2.03;;;19.50;68.20;;;;;;4951313;29;20030;-67
2022/07/17 07:55:46;;;;;;;9.20;1.90;;;19.60;68.00;;;;;;4953214;29;20027;-67
2022/07/17 07:58:13;;;;;;;7.95;1.80;;;19.60;67.80;;;;;;4951405;29;20031;-67
2022/07/17 08:00:44;;;;;;;4.38;1.48;;;19.60;68.10;;;;;;4949609;29;20093;-68
2022/07/17 08:03:10;;;;;;;3.83;1.42;;;19.70;67.50;;;;;;4945831;29;20442;-66
2022/07/17 08:05:36;;;;;;;3.17;1.40;;;19.70;67.20;;;;;;4934157;29;20023;-65
2022/07/17 08:08:02;;;;;;;4.50;1.45;;;19.70;67.00;;;;;;4935328;29;20513;-65
2022/07/17 08:10:28;;;;;;;3.55;2.22;;;19.80;67.10;;;;;;4938575;29;20031;-65
2022/07/17 08:12:54;;;;;;;6.40;1.70;;;19.70;67.30;;;;;;4935202;29;20051;-65
2022/07/17 08:15:20;;;;;;;4.53;1.70;;;19.70;67.20;;;;;;4937931;29;20031;-65
2022/07/17 08:17:47;;;;;;;4.20;1.80;;;19.70;67.30;;;;;;4953050;29;20134;-65
2022/07/17 08:20:14;;;;;;;4.18;1.77;;;19.70;67.20;;;;;;4953496;29;20023;-65
2022/07/17 08:22:44;;;;;;;5.05;1.85;;;19.60;67.00;;;;;;4953695;29;20035;-65
2022/07/17 08:25:10;;;;;;;10.05;1.98;;;19.70;67.00;;;;;;4962287;28;20031;-65
2022/07/17 08:27:37;;;;;;;6.03;1.70;;;19.70;67.00;;;;;;4951569;28;20031;-65
2022/07/17 08:30:04;;;;;;;3.42;1.70;;;19.80;67.20;;;;;;4942507;29;20027;-65
2022/07/17 08:32:29;;;;;;;4.50;1.98;;;19.90;67.10;;;;;;4953435;29;20067;-65
2022/07/17 08:34:55;;;;;;;4.13;1.70;;;20.00;67.10;;;;;;4954510;28;20486;-65
2022/07/17 08:37:20;;;;;;;9.77;2.03;;;20.10;66.70;;;;;;4938176;29;20502;-66
2022/07/17 08:39:46;;;;;;;5.07;1.67;;;20.10;66.40;;;;;;4917019;29;20602;-66
2022/07/17 08:42:15;;;;;;;5.50;1.83;;;20.20;66.70;;;;;;4952371;28;20446;-65
2022/07/17 08:44:42;;;;;;;4.07;1.92;;;20.30;66.30;;;;;;4948155;28;20035;-65
2022/07/17 08:47:08;;;;;;;2.35;1.25;;;20.40;66.10;;;;;;4956344;28;20109;-65
2022/07/17 08:49:38;;;;;;;7.55;1.75;;;20.40;66.00;;;;;;4935803;29;20110;-65
2022/07/17 08:52:04;;;;;;;5.47;1.90;;;20.50;65.40;;;;;;4953084;29;20063;-66
2022/07/17 08:54:29;;;;;;;50.88;35.55;;;20.50;65.80;;;;;;4953333;29;20024;-66
2022/07/17 08:56:57;;;;;;;23.15;13.50;;;20.60;65.60;;;;;;4950594;29;20089;-66
2022/07/17 08:59:22;;;;;;;8.82;4.80;;;20.70;65.90;;;;;;4945105;29;20044;-66
2022/07/17 09:01:48;;;;;;;7.45;3.22;;;20.80;65.60;;;;;;4942312;28;20065;-66
2022/07/17 09:04:14;;;;;;;11.13;5.15;;;20.90;65.80;;;;;;4953511;28;20106;-66
2022/07/17 09:06:39;;;;;;;8.02;3.60;;;20.90;65.70;;;;;;4956963;29;20050;-66
2022/07/17 09:09:13;;;;;;;14.80;8.00;;;21.00;66.00;;;;;;4954283;28;20046;-66
2022/07/17 09:11:41;;;;;;;8.10;3.13;;;21.10;65.70;;;;;;4951495;28;20039;-66
2022/07/17 09:14:07;;;;;;;6.03;3.20;;;21.20;65.40;;;;;;4957673;28;20039;-66
2022/07/17 09:16:36;;;;;;;5.68;2.28;;;21.30;64.90;;;;;;4956626;29;20039;-66
2022/07/17 09:19:02;;;;;;;5.82;1.95;;;21.40;64.80;;;;;;4956375;28;20030;-66
2022/07/17 09:21:28;;;;;;;3.20;1.60;;;21.40;64.30;;;;;;4956533;29;20031;-66
2022/07/17 09:24:01;;;;;;;3.95;2.00;;;21.50;63.40;;;;;;4955906;29;20024;-66
2022/07/17 09:26:27;;;;;;;5.00;1.70;;;21.50;63.90;;;;;;4956560;29;20422;-66
2022/07/17 09:28:53;;;;;;;2.97;1.70;;;21.50;63.60;;;;;;4938421;29;20027;-66
2022/07/17 09:31:30;;;;;;;4.05;1.77;;;21.50;62.70;;;;;;4952826;28;20031;-66
2022/07/17 09:33:56;;;;;;;4.60;1.70;;;21.50;63.70;;;;;;4956660;29;20059;-66
2022/07/17 09:36:22;;;;;;;10.13;2.33;;;21.70;64.10;;;;;;4955255;29;20451;-66
2022/07/17 09:38:54;;;;;;;3.65;1.55;;;21.70;63.40;;;;;;4956143;29;20102;-66
2022/07/17 09:41:21;;;;;;;8.35;2.45;;;21.80;62.30;;;;;;4955249;28;20507;-66
2022/07/17 09:43:50;;;;;;;3.38;1.52;;;21.70;62.30;;;;;;4955708;29;20031;-65
2022/07/17 09:46:20;;;;;;;4.32;1.90;;;21.70;62.10;;;;;;4955285;29;20435;-66
2022/07/17 09:48:53;;;;;;;5.32;2.45;;;21.70;62.00;;;;;;4942681;29;20066;-66
2022/07/17 09:51:30;;;;;;;6.15;2.40;;;21.70;62.70;;;;;;4951529;29;20039;-66
2022/07/17 09:54:01;;;;;;;5.85;1.95;;;21.80;62.80;;;;;;4954741;29;20031;-66
2022/07/17 09:56:30;;;;;;;3.67;1.63;;;21.80;62.10;;;;;;4956256;29;20058;-66
2022/07/17 09:58:59;;;;;;;7.35;1.80;;;21.80;62.00;;;;;;4955489;28;20395;-66
2022/07/17 10:01:24;;;;;;;3.25;1.70;;;21.90;62.00;;;;;;4955753;29;20062;-66
2022/07/17 10:03:53;;;;;;;2.80;1.58;;;21.90;61.60;;;;;;4956141;28;20455;-66
2022/07/17 10:06:20;;;;;;;4.30;1.60;;;21.80;61.30;;;;;;4954755;28;20079;-66
2022/07/17 10:08:46;;;;;;;3.90;2.08;;;21.80;61.50;;;;;;4955490;29;20479;-66
2022/07/17 10:11:15;;;;;;;4.32;1.60;;;21.70;62.00;;;;;;4954912;29;20035;-66
2022/07/17 10:13:43;;;;;;;4.15;1.77;;;21.70;62.40;;;;;;4956092;28;20035;-66
2022/07/17 10:16:10;;;;;;;5.43;2.03;;;21.80;62.30;;;;;;4955653;29;20023;-66
2022/07/17 10:18:41;;;;;;;4.78;1.85;;;21.80;61.80;;;;;;4954852;28;20082;-66
2022/07/17 10:21:11;;;;;;;5.35;2.17;;;21.90;61.70;;;;;;4955406;29;20431;-66
2022/07/17 10:23:38;;;;;;;4.50;1.88;;;21.90;61.70;;;;;;4954490;28;20027;-66
2022/07/17 10:26:03;;;;;;;5.55;2.13;;;22.00;61.10;;;;;;4952281;28;20024;-66
2022/07/17 10:28:43;;;;;;;4.95;1.85;;;22.00;61.20;;;;;;4954388;28;20487;-66
2022/07/17 10:31:09;;;;;;;4.25;1.50;;;22.00;60.20;;;;;;4954635;28;20469;-66
2022/07/17 10:33:35;;;;;;;6.07;1.95;;;21.90;61.20;;;;;;4951554;29;20109;-67
2022/07/17 10:36:00;;;;;;;5.72;1.77;;;22.00;61.00;;;;;;4942297;28;20036;-67
2022/07/17 10:38:27;;;;;;;4.57;1.65;;;22.00;60.90;;;;;;4955067;28;20035;-67
2022/07/17 10:41:02;;;;;;;5.68;1.75;;;22.00;60.90;;;;;;4942368;29;20027;-67
2022/07/17 10:43:42;;;;;;;5.65;1.70;;;22.00;60.80;;;;;;4952473;29;20171;-67
2022/07/17 10:46:08;;;;;;;4.20;1.60;;;22.00;60.70;;;;;;4943293;29;20031;-67
2022/07/17 10:48:33;;;;;;;6.70;1.80;;;22.00;61.20;;;;;;4938546;29;20036;-67
2022/07/17 10:50:59;;;;;;;4.50;1.42;;;22.10;61.30;;;;;;4953300;29;20025;-67
2022/07/17 10:53:29;;;;;;;3.25;1.70;;;22.10;60.60;;;;;;4950507;29;20526;-67
2022/07/17 10:56:13;;;;;;;3.35;1.40;;;22.10;61.50;;;;;;4953735;29;20027;-67
2022/07/17 10:58:41;;;;;;;5.43;1.60;;;22.20;60.80;;;;;;4944855;29;20046;-67
2022/07/17 11:01:12;;;;;;;3.30;1.45;;;22.10;60.50;;;;;;4948965;29;20455;-67
2022/07/17 11:03:42;;;;;;;6.60;2.10;;;22.10;60.60;;;;;;4953005;29;20045;-67
2022/07/17 11:06:12;;;;;;;5.18;1.80;;;22.10;60.70;;;;;;4952775;29;20506;-67
2022/07/17 11:08:42;;;;;;;3.25;1.60;;;22.10;61.00;;;;;;4944617;29;20031;-68
2022/07/17 11:11:08;;;;;;;4.30;1.80;;;22.10;61.10;;;;;;4951906;29;20023;-66
2022/07/17 11:13:34;;;;;;;5.28;1.90;;;22.20;60.90;;;;;;4937462;29;20027;-67
2022/07/17 11:15:59;;;;;;;5.30;1.80;;;22.20;60.30;;;;;;4953847;29;20026;-67
2022/07/17 11:18:25;;;;;;;4.68;1.77;;;22.20;60.00;;;;;;4944361;29;20031;-67
2022/07/17 11:20:54;;;;;;;3.35;1.42;;;22.20;59.80;;;;;;4954280;29;20118;-67
2022/07/17 11:23:22;;;;;;;5.03;1.75;;;22.10;60.10;;;;;;4944718;29;20043;-67
2022/07/17 11:25:52;;;;;;;6.22;1.65;;;22.10;60.50;;;;;;4953416;28;20482;-67
2022/07/17 11:28:31;;;;;;;3.53;1.80;;;22.10;59.90;;;;;;4947552;29;20086;-64
2022/07/17 11:30:57;;;;;;;5.13;2.05;;;22.20;60.10;;;;;;4934958;29;20361;-65
2022/07/17 11:33:23;;;;;;;5.45;2.00;;;22.10;60.00;;;;;;4944562;29;20042;-67
2022/07/17 11:35:49;;;;;;;3.95;1.92;;;22.20;60.20;;;;;;4953238;29;20479;-67
2022/07/17 11:38:14;;;;;;;5.20;1.70;;;22.20;60.40;;;;;;4949059;29;20031;-66
2022/07/17 11:40:48;;;;;;;3.67;1.83;;;22.30;60.00;;;;;;4935774;28;20122;-66
2022/07/17 11:43:13;;;;;;;5.63;2.10;;;22.20;59.80;;;;;;4943987;29;20562;-66
2022/07/17 11:45:39;;;;;;;5.53;2.30;;;22.30;59.80;;;;;;4936521;29;20119;-66
2022/07/17 11:48:05;;;;;;;4.53;1.80;;;22.30;59.80;;;;;;4943530;29;20040;-66
2022/07/17 11:50:31;;;;;;;5.60;2.00;;;22.30;60.10;;;;;;4950011;29;20053;-66
2022/07/17 11:53:04;;;;;;;4.57;1.75;;;22.40;60.10;;;;;;4938427;29;20042;-68
2022/07/17 11:55:40;;;;;;;4.70;2.10;;;22.40;59.90;;;;;;4949433;29;20035;-66
2022/07/17 11:58:07;;;;;;;5.40;1.80;;;22.40;59.80;;;;;;4944641;29;20043;-66
2022/07/17 12:00:33;;;;;;;3.85;2.00;;;22.40;60.10;;;;;;4945137;28;20051;-66
2022/07/17 12:03:04;;;;;;;3.30;1.85;;;22.40;60.00;;;;;;4943046;29;20058;-66
2022/07/17 12:05:32;;;;;;;5.03;1.98;;;22.50;59.40;;;;;;4953902;29;20031;-66
2022/07/17 12:07:58;;;;;;;7.93;2.15;;;22.50;59.70;;;;;;4946982;29;20032;-68
2022/07/17 12:10:26;;;;;;;8.57;2.00;;;22.50;60.00;;;;;;4944102;28;20024;-67
2022/07/17 12:12:56;;;;;;;6.50;2.25;;;22.60;59.50;;;;;;4945171;28;20035;-67
2022/07/17 12:15:35;;;;;;;3.50;1.67;;;22.60;58.00;;;;;;4940723;28;20478;-67
2022/07/17 12:18:00;;;;;;;5.57;2.00;;;22.50;58.30;;;;;;4940476;28;20038;-67
2022/07/17 12:20:40;;;;;;;4.10;1.90;;;22.50;58.10;;;;;;4947564;28;20031;-66
2022/07/17 12:23:06;;;;;;;3.55;1.98;;;22.50;57.90;;;;;;4952493;29;20047;-67
2022/07/17 12:25:32;;;;;;;7.63;2.00;;;22.50;57.70;;;;;;4942330;29;20475;-67
2022/07/17 12:27:57;;;;;;;5.07;1.98;;;22.50;57.60;;;;;;4969219;23;20063;-66
2022/07/17 12:32:58;;;;;;;4.95;1.55;;;22.50;57.70;;;;;;5672673;23;20050;-67
2022/07/17 12:35:24;;;;;;;5.65;2.17;;;22.60;57.50;;;;;;4990519;28;20035;-67
2022/07/17 12:37:50;;;;;;;5.25;1.88;;;22.70;57.10;;;;;;4990455;28;20027;-67
2022/07/17 12:40:15;;;;;;;4.65;2.00;;;22.70;57.00;;;;;;4985097;28;20065;-66
2022/07/17 12:42:42;;;;;;;4.15;1.80;;;22.80;56.80;;;;;;4971621;28;20078;-66
2022/07/17 12:45:09;;;;;;;5.93;1.90;;;22.80;57.00;;;;;;4980678;28;20077;-67